Aviation Digital Data Service (ADDS)

Output produced by METARs form (1115 UTC 24 April 2017)
found at http://www.aviationweather.gov/adds/metars/
 
EPBY 241100Z 24015KT 210V270 9999 BKN037 09/00 Q1014
TAF EPBY 240530Z 2406/2506 26010KT 9999 SCT030 
     TEMPO 2408/2415 26015G25KT 
     BECMG 2415/2417 20010KT 
     PROB40 
     TEMPO 2415/2420 20015G25KT -SHRA BKN020CB
       
TAF EPCE 241100Z 2412/2421 23012KT 9999 BKN025 
     TEMPO 2412/2421 -RA 
     PROB30 
     TEMPO 2412/2418 23016G28KT
       
TAF EPDA 241100Z 2412/2421 23015KT 9999 BKN020 
     TEMPO 2412/2421 23015G25KT 7000 -RA BKN015 
     PROB40 2418/2421 5000 -RA BR BKN010
       
TAF EPDE 241100Z 2412/2421 26012KT CAVOK 
     BECMG 2418/2420 19006KT
       
EPGD 241100Z 21012KT 180V250 9999 FEW023 BKN036 07/M01 Q1011
TAF EPGD 240530Z 2406/2506 25008KT 9999 SCT030 
     TEMPO 2406/2411 25015G25KT 
     BECMG 2411/2413 19014KT 
     TEMPO 2411/2418 19018G28KT SHRA BKN014CB 
     BECMG 2500/2503 VRB04KT -RA BKN014 
     TEMPO 2503/2506 BKN008
       
TAF EPIR 241100Z 2412/2421 25018KT 9999 BKN040 
     PROB30 2413/2416 20016G26KT
       
EPKK 241100Z 26010KT 9999 FEW040 BKN053 08/M00 Q1018
TAF AMD EPKK 240812Z 2408/2506 25011KT 9999 BKN033 
     TEMPO 2408/2415 25015G25KT SCT025TCU 
     BECMG 2415/2418 VRB02KT 
     BECMG 2504/2506 25010KT
       
TAF EPKS 241100Z 2412/2421 22012KT 9999 BKN033 
     BECMG 2416/2418 SCT040
       
EPKT 241100Z 23015KT 9999 SCT044 08/M03 Q1017
TAF EPKT 240530Z 2406/2506 27007KT 9999 BKN040 
     BECMG 2413/2416 21012KT 
     BECMG 2504/2506 21017G28KT
       
EPLB 241100Z 26013KT 9999 FEW049 08/M02 Q1016
TAF EPLB 240830Z 2409/2418 27010KT 9999 SCT025 
     PROB30 
     TEMPO 2409/2415 -SHRA BKN015CB
       
EPLL 241100Z 27012KT 230V300 9999 BKN042 08/M02 Q1016
TAF EPLL 240530Z 2406/2506 26010KT CAVOK 
     BECMG 2417/2420 19010KT
       
TAF EPLY 241100Z 2412/2421 27012KT CAVOK 
     BECMG 2418/2420 18010KT
       
TAF EPMB 241100Z 2412/2421 24016KT 9999 BKN025 OVC100 
     TEMPO 2417/2421 -RA BKN020 OVC070
       
TAF EPMI 241100Z 2412/2421 22010KT 9999 BKN025 
     PROB40 
     TEMPO 2412/2421 24014G30KT 8000 -SHRA BKN010CB
       
TAF COR EPMM 241100Z 2412/2421 27012KT CAVOK 
     PROB30 
     TEMPO 2412/2418 6000 -SHRA BKN015TCU 
     BECMG 2417/2420 18006KT
       
EPMO 241100Z 26012KT 230V300 CAVOK 09/M03 Q1016
TAF EPMO 240530Z 2406/2506 26010KT CAVOK 
     BECMG 2415/2418 19008KT
       
TAF EPOK 241100Z 2412/2421 21015KT 9999 BKN030 
     PROB40 2412/2418 21015G25KT 5000 RA BR BKN015 
     PROB30 2412/2421 21020G30KT 
     PROB40 
     TEMPO 2418/2421 5000 SHRA BR BKN015CB
       
EPPO 241100Z 26010KT 190V270 9999 SCT032 09/00 Q1015
TAF EPPO 240530Z 2406/2506 27008KT 9999 SCT040 
     BECMG 2411/2413 21010KT
       
TAF EPPR 241100Z 2412/2421 24015KT 9999 BKN035 
     PROB40 
     TEMPO 2412/2418 RA BKN015
       
TAF EPPW 241100Z 2412/2421 25014KT 9999 BKN030
       
EPRA 241100Z 29010KT CAVOK 08/M02 Q1017
TAF EPRA 240830Z 2409/2418 29014KT 9999 BKN040 
     BECMG 2410/2412 CAVOK
       
EPRZ 241100Z 25020KT 9999 BKN020CB 06/00 Q1018
TAF AMD EPRZ 240901Z 2409/2506 26012KT 9999 BKN040 
     TEMPO 2409/2415 26015G25KT BKN025CB 
     BECMG 2416/2419 18007KT 
     BECMG 2504/2506 18020G32KT
       
EPSC 241100Z 21011G24KT 160V250 9999 FEW033 SCT042 09/01 Q1012
TAF EPSC 240530Z 2406/2506 21004KT 9999 SCT030 
     BECMG 2408/2410 22014KT 
     TEMPO 2410/2416 23016G30KT -SHRA BKN025CB 
     BECMG 2420/2422 -RA BKN014 
     BECMG 2422/2424 VRB03KT 
     TEMPO 2422/2506 SHRA BKN006 BKN012CB
       
TAF EPSN 241100Z 2412/2421 23014KT 9999 BKN027 
     TEMPO 2412/2418 8000 -RA BKN014 
     BECMG 2419/2421 4000 RA BR BKN010
       
EPSY 241100Z 26010KT 200V300 CAVOK 08/M04 Q1014
TAF EPSY 240830Z 2409/2418 26010KT 9999 SCT040
       
TAF EPTM 241100Z 2412/2421 25012KT 9999 BKN040 
     BECMG 2417/2419 18010KT
       
EPWA 241100Z 27012KT 240V300 CAVOK 08/M04 Q1016 NOSIG
TAF EPWA 240530Z 2406/2506 27010KT CAVOK 
     BECMG 2415/2418 19010KT
       
EPWR 241100Z 27008KT 190V310 9999 FEW040 10/M01 Q1017
TAF EPWR 240530Z 2406/2506 27008KT 9999 SCT040 
     BECMG 2411/2413 21010KT
       
EPZG 241100Z 23010KT 200V270 9999 FEW045 10/M02 Q1016
TAF EPZG 240830Z 2409/2418 22012KT 9999 BKN030 
     PROB30 
     TEMPO 2411/2417 22016G28KT
       
EPZG 241100Z 23010KT 200V270 9999 FEW045 10/M02 Q1016
TAF EPZG 240830Z 2409/2418 22012KT 9999 BKN030 
     PROB30 
     TEMPO 2411/2417 22016G28KT
       
EPKK 241100Z 26010KT 9999 FEW040 BKN053 08/M00 Q1018
TAF AMD EPKK 240812Z 2408/2506 25011KT 9999 BKN033 
     TEMPO 2408/2415 25015G25KT SCT025TCU 
     BECMG 2415/2418 VRB02KT 
     BECMG 2504/2506 25010KT
       
TAF EPDE 241100Z 2412/2421 26012KT CAVOK 
     BECMG 2418/2420 19006KT
       
EPSC 241100Z 21011G24KT 160V250 9999 FEW033 SCT042 09/01 Q1012
TAF EPSC 240530Z 2406/2506 21004KT 9999 SCT030 
     BECMG 2408/2410 22014KT 
     TEMPO 2410/2416 23016G30KT -SHRA BKN025CB 
     BECMG 2420/2422 -RA BKN014 
     BECMG 2422/2424 VRB03KT 
     TEMPO 2422/2506 SHRA BKN006 BKN012CB
       
EPRZ 241100Z 25020KT 9999 BKN020CB 06/00 Q1018
TAF AMD EPRZ 240901Z 2409/2506 26012KT 9999 BKN040 
     TEMPO 2409/2415 26015G25KT BKN025CB 
     BECMG 2416/2419 18007KT 
     BECMG 2504/2506 18020G32KT
       
TAF EPKS 241100Z 2412/2421 22012KT 9999 BKN033 
     BECMG 2416/2418 SCT040
       
EPPO 241100Z 26010KT 190V270 9999 SCT032 09/00 Q1015
TAF EPPO 240530Z 2406/2506 27008KT 9999 SCT040 
     BECMG 2411/2413 21010KT
       
EPLL 241100Z 27012KT 230V300 9999 BKN042 08/M02 Q1016
TAF EPLL 240530Z 2406/2506 26010KT CAVOK 
     BECMG 2417/2420 19010KT
       
EPWA 241100Z 27012KT 240V300 CAVOK 08/M04 Q1016 NOSIG
TAF EPWA 240530Z 2406/2506 27010KT CAVOK 
     BECMG 2415/2418 19010KT
       
EPKT 241100Z 23015KT 9999 SCT044 08/M03 Q1017
TAF EPKT 240530Z 2406/2506 27007KT 9999 BKN040 
     BECMG 2413/2416 21012KT 
     BECMG 2504/2506 21017G28KT
       
EPGD 241100Z 21012KT 180V250 9999 FEW023 BKN036 07/M01 Q1011
TAF EPGD 240530Z 2406/2506 25008KT 9999 SCT030 
     TEMPO 2406/2411 25015G25KT 
     BECMG 2411/2413 19014KT 
     TEMPO 2411/2418 19018G28KT SHRA BKN014CB 
     BECMG 2500/2503 VRB04KT -RA BKN014 
     TEMPO 2503/2506 BKN008
       
EPWR 241100Z 27008KT 190V310 9999 FEW040 10/M01 Q1017
TAF EPWR 240530Z 2406/2506 27008KT 9999 SCT040 
     BECMG 2411/2413 21010KT
       
TAF EPSN 241100Z 2412/2421 23014KT 9999 BKN027 
     TEMPO 2412/2418 8000 -RA BKN014 
     BECMG 2419/2421 4000 RA BR BKN010
       
EPBY 241100Z 24015KT 210V270 9999 BKN037 09/00 Q1014
TAF EPBY 240530Z 2406/2506 26010KT 9999 SCT030 
     TEMPO 2408/2415 26015G25KT 
     BECMG 2415/2417 20010KT 
     PROB40 
     TEMPO 2415/2420 20015G25KT -SHRA BKN020CB
       
EPSY 241100Z 26010KT 200V300 CAVOK 08/M04 Q1014
TAF EPSY 240830Z 2409/2418 26010KT 9999 SCT040